To NAV CANADA Home Page Login to a new session Search on AWWS site Feedback and Comments Disclaimer Vers la page française équivalente Tips FAQ What's new on the site To the Forecasts and Observations / NOTAM section To "File a Flight Plan" website Publications and other links Update of the User's profile FIC Telephone Numbers My Weather Data Folder Route Weather Data Regional Weather Data Local Weather Data To the Forecasts and Observations / NOTAM section
Request Generated 12/10/2016 at 16:32:24 UTC . Weather information available at that time is displayed.

METAR/TAF

THUNDER BAY/ON    (show WxCam)

METAR CYQT 101600Z 29007KT 20SM SCT020 M14/M19 A3042 RMK SF3 SLP322=
METAR CYQT 101500Z 28007KT 20SM FEW030 M15/M18 A3042 RMK SC1 SLP322=
METAR CYQT 101400Z 27004KT 20SM FEW030 FEW160 FEW200 M16/M18 A3041
RMK SC1AC1CI1 AC TR CI TR SLP319=

TAF CYQT 101338Z 1014/1102 30008KT P6SM SCT030
BECMG 1022/1024 VRB03KT
RMK NXT FCST BY 102000Z=
Your time UTC time
Weather data provided by Environment Canada and NAV CANADA